createdAt,value
2023-05-15T00:00:45.343Z,18.60
2023-05-15T00:03:13.299Z,18.47
2023-05-15T00:05:41.364Z,23.47
2023-05-15T00:08:10.600Z,21.37
2023-05-15T00:10:40.870Z,19.57
2023-05-15T00:13:10.614Z,22.93
2023-05-15T00:15:40.519Z,18.27
2023-05-15T00:18:08.369Z,23.10
2023-05-15T00:20:36.314Z,18.80
2023-05-15T00:23:04.096Z,20.07
2023-05-15T00:25:33.281Z,18.90
2023-05-15T00:28:01.021Z,19.77
2023-05-15T00:30:29.252Z,18.67
2023-05-15T00:32:57.169Z,17.97
2023-05-15T00:35:25.290Z,19.33
2023-05-15T00:37:53.341Z,19.17
2023-05-15T00:40:24.628Z,21.63
2023-05-15T00:42:54.134Z,20.17
2023-05-15T00:45:23.580Z,18.57
2023-05-15T00:47:52.302Z,18.77
2023-05-15T00:50:20.836Z,21.93
2023-05-15T00:52:49.002Z,19.53
2023-05-15T00:55:16.836Z,22.33
2023-05-15T00:57:45.501Z,21.07
2023-05-15T01:00:16.903Z,17.13
2023-05-15T01:02:45.553Z,18.27
2023-05-15T01:05:14.234Z,18.07
2023-05-15T01:07:50.109Z,19.27
2023-05-15T01:10:20.607Z,16.73
2023-05-15T01:12:51.277Z,18.37
2023-05-15T01:15:20.530Z,17.47
2023-05-15T01:17:48.442Z,20.03
2023-05-15T01:20:19.766Z,18.93
2023-05-15T01:23:00.621Z,18.70
2023-05-15T01:26:09.369Z,16.90
2023-05-15T01:28:42.412Z,17.20
2023-05-15T01:31:15.721Z,17.10
2023-05-15T01:33:47.298Z,19.63
2023-05-15T01:36:20.022Z,15.10
2023-05-15T01:38:51.666Z,19.63
2023-05-15T01:41:25.610Z,16.33
2023-05-15T01:43:58.299Z,16.53
2023-05-15T01:46:31.090Z,18.67
2023-05-15T01:49:02.084Z,17.83
2023-05-15T01:51:32.265Z,21.13
2023-05-15T01:54:00.764Z,21.70
2023-05-15T01:56:29.472Z,20.27
2023-05-15T01:59:00.214Z,20.97
2023-05-15T02:01:29.452Z,20.67
2023-05-15T02:03:57.714Z,21.80
2023-05-15T02:06:26.711Z,18.97
2023-05-15T02:08:54.752Z,17.70
2023-05-15T02:11:22.465Z,18.50
2023-05-15T02:13:51.533Z,17.00
2023-05-15T02:16:20.801Z,19.60
2023-05-15T02:18:48.774Z,18.57
2023-05-15T02:21:16.739Z,16.43
2023-05-15T02:23:44.604Z,19.97
2023-05-15T02:26:27.502Z,18.77
2023-05-15T02:29:05.220Z,19.73
2023-05-15T02:31:40.873Z,17.70
2023-05-15T02:34:18.283Z,19.27
2023-05-15T02:36:48.661Z,21.63
2023-05-15T02:39:17.594Z,21.43
2023-05-15T02:41:47.928Z,19.97
2023-05-15T02:44:16.412Z,19.60
2023-05-15T02:46:45.698Z,21.53
2023-05-15T02:49:14.630Z,18.73
2023-05-15T02:51:43.852Z,21.80
2023-05-15T02:54:12.272Z,20.13
2023-05-15T02:56:40.329Z,22.23
2023-05-15T02:59:08.220Z,22.73
2023-05-15T03:01:36.072Z,23.23
2023-05-15T03:04:05.660Z,19.93
2023-05-15T03:06:33.578Z,25.23
2023-05-15T03:09:01.433Z,20.03
2023-05-15T03:11:29.216Z,25.03
2023-05-15T03:13:57.107Z,22.13
2023-05-15T03:16:24.820Z,21.40
2023-05-15T03:18:52.644Z,24.63
2023-05-15T03:21:21.890Z,26.53
2023-05-15T03:23:49.670Z,23.87
2023-05-15T03:26:17.454Z,25.17
2023-05-15T03:28:45.152Z,25.53
2023-05-15T03:31:14.400Z,25.97
2023-05-15T03:33:43.256Z,28.33
2023-05-15T03:36:11.060Z,29.07
2023-05-15T03:38:40.490Z,26.37
2023-05-15T03:41:08.324Z,27.37
2023-05-15T03:43:36.096Z,27.13
2023-05-15T03:46:03.885Z,27.73
2023-05-15T03:48:31.764Z,27.13
2023-05-15T03:50:59.630Z,26.43
2023-05-15T03:53:27.492Z,25.20
2023-05-15T03:55:56.771Z,23.00
2023-05-15T03:58:24.504Z,26.27
2023-05-15T04:00:52.362Z,27.47
2023-05-15T04:03:20.139Z,27.50
2023-05-15T04:05:50.154Z,27.80
2023-05-15T04:08:18.378Z,25.90
2023-05-15T04:10:46.220Z,27.90
2023-05-15T04:13:15.374Z,25.07
2023-05-15T04:15:43.175Z,24.10
2023-05-15T04:18:10.928Z,25.37
2023-05-15T04:20:38.692Z,22.87
2023-05-15T04:23:06.478Z,21.30
2023-05-15T04:25:34.255Z,19.63
2023-05-15T04:28:03.157Z,19.20
2023-05-15T04:30:32.381Z,19.03
2023-05-15T04:33:00.209Z,21.33
2023-05-15T04:35:28.137Z,23.27
2023-05-15T04:37:55.935Z,21.47
2023-05-15T04:40:23.882Z,23.37
2023-05-15T04:42:51.565Z,18.30
2023-05-15T04:45:19.422Z,21.73
2023-05-15T04:47:48.573Z,18.43
2023-05-15T04:50:16.739Z,18.30
2023-05-15T04:52:45.693Z,16.83
2023-05-15T04:55:13.447Z,14.00
2023-05-15T04:57:41.256Z,17.27
2023-05-15T05:00:11.979Z,17.30
2023-05-15T05:02:40.043Z,18.43
2023-05-15T05:05:10.085Z,17.00
2023-05-15T05:07:38.011Z,19.13
2023-05-15T05:10:06.581Z,19.07
2023-05-15T05:12:34.407Z,19.67
2023-05-15T05:15:02.166Z,19.40
2023-05-15T05:17:30.984Z,19.23
2023-05-15T05:19:58.793Z,22.70
2023-05-15T05:22:27.986Z,19.37
2023-05-15T05:24:56.286Z,19.17
2023-05-15T05:27:24.089Z,19.37
2023-05-15T05:29:53.425Z,25.47
2023-05-15T05:32:21.179Z,20.23
2023-05-15T05:34:48.903Z,18.63
2023-05-15T05:37:16.638Z,18.87
2023-05-15T05:39:47.052Z,20.70
2023-05-15T05:42:14.800Z,21.53
2023-05-15T05:44:42.615Z,18.03
2023-05-15T05:47:10.439Z,20.93
2023-05-15T05:49:39.857Z,22.20
2023-05-15T05:52:09.249Z,22.50
2023-05-15T05:54:37.210Z,23.90
2023-05-15T05:57:07.749Z,23.10
2023-05-15T05:59:37.339Z,22.43
2023-05-15T06:02:05.824Z,23.10
2023-05-15T06:04:34.419Z,23.13
2023-05-15T06:07:02.483Z,23.63
2023-05-15T06:09:30.289Z,21.67
2023-05-15T06:11:58.027Z,20.10
2023-05-15T06:14:27.352Z,17.93
2023-05-15T06:16:55.170Z,19.33
2023-05-15T06:19:23.036Z,22.20
2023-05-15T06:21:51.140Z,21.40
2023-05-15T06:24:18.952Z,23.50
2023-05-15T06:26:46.846Z,26.60
2023-05-15T06:29:14.595Z,25.20
2023-05-15T06:31:43.721Z,26.47
2023-05-15T06:34:11.518Z,24.80
2023-05-15T06:36:39.451Z,25.23
2023-05-15T06:39:10.716Z,27.50
2023-05-15T06:41:38.518Z,26.93
2023-05-15T06:44:06.354Z,23.33
2023-05-15T06:46:34.186Z,27.17
2023-05-15T06:49:03.456Z,27.37
2023-05-15T06:51:31.563Z,26.50
2023-05-15T06:53:59.498Z,29.13
2023-05-15T06:56:27.238Z,29.13
2023-05-15T06:58:55.082Z,25.50
2023-05-15T07:01:22.864Z,26.13
2023-05-15T07:03:50.681Z,24.67
2023-05-15T07:06:19.792Z,23.23
2023-05-15T07:08:47.598Z,23.23
2023-05-15T07:11:15.339Z,23.47
2023-05-15T07:13:43.061Z,24.30
2023-05-15T07:16:11.296Z,22.07
2023-05-15T07:18:39.286Z,23.40
2023-05-15T07:21:07.437Z,23.90
2023-05-15T07:23:36.545Z,24.27
2023-05-15T07:26:04.409Z,24.90
2023-05-15T07:28:32.247Z,23.00
2023-05-15T07:31:02.250Z,25.90
2023-05-15T07:33:30.741Z,26.60
2023-05-15T07:35:58.506Z,26.63
2023-05-15T07:38:26.431Z,27.60
2023-05-15T07:40:55.582Z,24.47
2023-05-15T07:43:23.358Z,24.97
2023-05-15T07:45:51.259Z,25.17
2023-05-15T07:48:20.799Z,29.77
2023-05-15T07:50:48.885Z,28.17
2023-05-15T07:53:17.087Z,28.33
2023-05-15T07:55:45.166Z,32.47
2023-05-15T07:58:14.561Z,33.77
2023-05-15T08:00:42.310Z,31.77
2023-05-15T08:03:10.308Z,37.90
2023-05-15T08:05:38.219Z,33.00
2023-05-15T08:08:06.084Z,34.90
2023-05-15T08:10:33.758Z,31.07
2023-05-15T08:13:01.556Z,30.33
2023-05-15T08:15:31.295Z,31.10
2023-05-15T08:17:59.100Z,31.07
2023-05-15T08:20:27.396Z,35.33
2023-05-15T08:22:55.154Z,38.77
2023-05-15T08:25:23.007Z,42.60
2023-05-15T08:27:51.736Z,40.27
2023-05-15T08:30:19.543Z,42.57
2023-05-15T08:32:48.986Z,41.93
2023-05-15T08:35:16.826Z,40.60
2023-05-15T08:37:44.650Z,35.63
2023-05-15T08:40:13.289Z,32.23
2023-05-15T08:42:45.462Z,32.87
2023-05-15T08:45:13.965Z,33.70
2023-05-15T08:47:43.253Z,30.87
2023-05-15T08:50:14.635Z,30.93
2023-05-15T08:52:43.637Z,31.67
2023-05-15T08:55:11.780Z,28.33
2023-05-15T08:57:40.147Z,31.73
2023-05-15T09:00:09.534Z,25.80
2023-05-15T09:02:37.678Z,29.40
2023-05-15T09:05:07.011Z,21.13
2023-05-15T09:07:36.894Z,22.60
2023-05-15T09:10:05.688Z,23.87
2023-05-15T09:12:35.818Z,22.10
2023-05-15T09:15:12.085Z,25.00
2023-05-15T09:17:40.015Z,25.13
2023-05-15T09:20:25.365Z,25.17
2023-05-15T09:22:54.725Z,25.33
2023-05-15T09:25:34.501Z,24.77
2023-05-15T09:28:02.418Z,21.83
2023-05-15T09:30:31.272Z,24.33
2023-05-15T09:33:03.434Z,22.30
2023-05-15T09:35:35.733Z,25.00
2023-05-15T09:38:08.760Z,22.77
2023-05-15T09:40:36.549Z,22.63
2023-05-15T09:43:04.702Z,23.70
2023-05-15T09:45:32.570Z,24.37
2023-05-15T09:48:02.308Z,23.60
2023-05-15T09:50:35.943Z,21.33
2023-05-15T09:53:05.912Z,22.43
2023-05-15T09:55:35.054Z,22.10
2023-05-15T09:58:07.412Z,25.63
2023-05-15T10:00:35.313Z,23.03
2023-05-15T10:03:04.600Z,20.00
2023-05-15T10:05:43.131Z,17.17
2023-05-15T10:08:15.025Z,14.47
2023-05-15T10:10:43.265Z,13.10
2023-05-15T10:13:12.266Z,13.27
2023-05-15T10:15:42.077Z,9.77
2023-05-15T10:18:10.071Z,11.10
2023-05-15T10:20:38.746Z,11.10
2023-05-15T10:23:06.981Z,9.60
2023-05-15T10:25:42.536Z,11.23
2023-05-15T10:28:12.089Z,10.30
2023-05-15T10:30:40.323Z,8.20
2023-05-15T10:33:08.986Z,5.33
2023-05-15T10:35:37.343Z,6.47
2023-05-15T10:38:06.774Z,10.30
2023-05-15T10:40:37.775Z,6.67
2023-05-15T10:43:06.849Z,8.70
2023-05-15T10:45:36.400Z,6.30
2023-05-15T10:48:07.699Z,5.00
2023-05-15T10:50:38.013Z,5.43
2023-05-15T10:53:05.896Z,6.53
2023-05-15T10:55:33.789Z,5.67
2023-05-15T10:58:02.922Z,8.67
2023-05-15T11:00:32.254Z,7.10
2023-05-15T11:03:01.020Z,6.77
2023-05-15T11:05:31.157Z,6.00
2023-05-15T11:08:29.882Z,8.17
2023-05-15T11:10:57.758Z,6.83
2023-05-15T11:13:26.813Z,9.57
2023-05-15T11:15:54.892Z,10.63
2023-05-15T11:18:22.669Z,10.03
2023-05-15T11:21:09.717Z,5.87
2023-05-15T11:23:42.120Z,8.90
2023-05-15T11:26:10.218Z,5.63
2023-05-15T11:28:47.265Z,5.10
2023-05-15T11:31:16.082Z,9.20
2023-05-15T11:33:43.928Z,6.67
2023-05-15T11:36:15.908Z,6.80
2023-05-15T11:38:44.878Z,7.27
2023-05-15T11:41:21.720Z,7.20
2023-05-15T11:43:51.505Z,8.00
2023-05-15T11:46:19.319Z,7.80
2023-05-15T11:48:48.728Z,7.00
2023-05-15T11:51:19.444Z,10.07
2023-05-15T11:53:47.387Z,10.50
2023-05-15T11:56:19.436Z,9.27
2023-05-15T11:58:51.222Z,6.30
2023-05-15T12:01:19.107Z,12.03
2023-05-15T12:03:49.042Z,12.40
2023-05-15T12:06:17.461Z,7.87
2023-05-15T12:08:45.390Z,7.53
2023-05-15T12:11:13.510Z,4.17
2023-05-15T12:13:41.340Z,7.73
2023-05-15T12:16:10.571Z,8.60
2023-05-15T12:18:38.449Z,7.80
2023-05-15T12:21:07.250Z,4.80
2023-05-15T12:23:36.096Z,5.63
2023-05-15T12:26:04.751Z,8.27
2023-05-15T12:28:36.618Z,9.77
2023-05-15T12:31:05.111Z,9.77
2023-05-15T12:33:34.491Z,3.80
2023-05-15T12:36:02.342Z,5.10
2023-05-15T12:38:30.807Z,7.53
2023-05-15T12:40:58.931Z,6.00
2023-05-15T12:43:26.906Z,5.77
2023-05-15T12:45:55.025Z,6.37
2023-05-15T12:48:23.073Z,3.53
2023-05-15T12:50:52.171Z,5.90
2023-05-15T12:53:22.749Z,7.03
2023-05-15T12:55:52.118Z,4.80
2023-05-15T12:58:20.271Z,3.53
2023-05-15T13:00:48.877Z,3.80
2023-05-15T13:03:16.773Z,4.37
2023-05-15T13:05:46.192Z,4.50
2023-05-15T13:08:18.335Z,3.73
2023-05-15T13:10:47.278Z,5.03
2023-05-15T13:13:16.109Z,5.00
2023-05-15T13:15:46.063Z,5.47
2023-05-15T13:18:15.075Z,4.90
2023-05-15T13:20:44.870Z,3.60
2023-05-15T13:23:15.065Z,6.47
2023-05-15T13:25:44.257Z,4.70
2023-05-15T13:28:13.051Z,2.80
2023-05-15T13:30:42.395Z,4.50
2023-05-15T13:33:10.851Z,4.10
2023-05-15T13:35:39.549Z,3.33
2023-05-15T13:38:10.410Z,5.20
2023-05-15T13:40:39.367Z,3.43
2023-05-15T13:43:08.514Z,4.53
2023-05-15T13:45:36.444Z,6.97
2023-05-15T13:48:04.272Z,7.33
2023-05-15T13:50:32.021Z,5.17
2023-05-15T13:52:59.804Z,4.33
2023-05-15T13:55:27.648Z,4.13
2023-05-15T13:57:55.382Z,5.80
2023-05-15T14:00:24.755Z,8.93
2023-05-15T14:02:52.929Z,4.67
2023-05-15T14:05:20.768Z,6.90
2023-05-15T14:07:48.484Z,6.03
2023-05-15T14:10:16.260Z,8.40
2023-05-15T14:12:44.279Z,5.17
2023-05-15T14:15:13.998Z,7.37
2023-05-15T14:17:43.343Z,7.40
2023-05-15T14:20:12.491Z,5.40
2023-05-15T14:22:41.376Z,6.73
2023-05-15T14:25:10.205Z,6.07
2023-05-15T14:27:38.092Z,5.27
2023-05-15T14:30:07.062Z,4.43
2023-05-15T14:32:34.901Z,4.87
2023-05-15T14:35:04.498Z,6.50
2023-05-15T14:37:32.237Z,3.70
2023-05-15T14:39:59.974Z,10.97
2023-05-15T14:42:28.228Z,3.83
2023-05-15T14:44:55.960Z,6.47
2023-05-15T14:47:25.329Z,5.07
2023-05-15T14:49:53.196Z,7.87
2023-05-15T14:52:22.581Z,6.90
2023-05-15T14:55:00.524Z,4.10
2023-05-15T14:57:35.420Z,8.07
2023-05-15T15:00:04.724Z,5.47
2023-05-15T15:02:32.573Z,8.37
2023-05-15T15:05:00.369Z,8.60
2023-05-15T15:07:30.876Z,8.33
2023-05-15T15:10:00.280Z,8.00
2023-05-15T15:12:28.221Z,5.60
2023-05-15T15:14:56.015Z,4.83
2023-05-15T15:17:23.825Z,4.97
2023-05-15T15:19:51.662Z,7.87
2023-05-15T15:22:19.552Z,8.33
2023-05-15T15:24:50.429Z,5.97
2023-05-15T15:27:18.356Z,5.33
2023-05-15T15:29:46.778Z,9.30
2023-05-15T15:32:14.708Z,5.80
2023-05-15T15:34:42.701Z,9.47
2023-05-15T15:37:10.440Z,7.00
2023-05-15T15:39:38.256Z,10.27
2023-05-15T15:42:07.565Z,12.77
2023-05-15T15:44:36.850Z,10.17
2023-05-15T15:47:04.961Z,12.13
2023-05-15T15:49:32.860Z,10.87
2023-05-15T15:52:00.729Z,11.03
2023-05-15T15:54:30.264Z,7.30
2023-05-15T15:56:58.070Z,7.57
2023-05-15T15:59:27.255Z,8.00
2023-05-15T16:01:55.102Z,9.20
2023-05-15T16:04:23.128Z,12.73
2023-05-15T16:06:50.988Z,5.20
2023-05-15T16:09:19.800Z,10.53
2023-05-15T16:11:47.696Z,7.53
2023-05-15T16:14:17.001Z,9.20
2023-05-15T16:16:46.287Z,9.93
2023-05-15T16:19:14.322Z,14.07
2023-05-15T16:21:42.260Z,8.57
2023-05-15T16:24:10.189Z,10.90
2023-05-15T16:26:38.540Z,6.27
2023-05-15T16:29:06.496Z,12.63
2023-05-15T16:31:34.260Z,10.50
2023-05-15T16:34:04.266Z,9.00
2023-05-15T16:36:32.473Z,4.57
2023-05-15T16:39:01.424Z,12.87
2023-05-15T16:41:29.363Z,11.70
2023-05-15T16:43:57.221Z,6.87
2023-05-15T16:46:25.253Z,5.13
2023-05-15T16:48:53.050Z,14.23
2023-05-15T16:51:22.558Z,10.77
2023-05-15T16:53:50.322Z,11.57
2023-05-15T16:56:18.032Z,5.73
2023-05-15T16:58:46.065Z,6.60
2023-05-15T17:01:13.968Z,3.50
2023-05-15T17:03:41.867Z,7.17
2023-05-15T17:06:09.696Z,11.23
2023-05-15T17:08:38.969Z,7.20
2023-05-15T17:11:06.937Z,13.93
2023-05-15T17:13:34.815Z,5.10
2023-05-15T17:16:02.565Z,7.93
2023-05-15T17:18:30.412Z,12.10
2023-05-15T17:20:58.288Z,9.47
2023-05-15T17:23:26.253Z,8.57
2023-05-15T17:25:55.427Z,6.57
2023-05-15T17:28:23.222Z,4.83
2023-05-15T17:30:50.980Z,11.87
2023-05-15T17:33:18.778Z,10.93
2023-05-15T17:35:46.997Z,9.07
2023-05-15T17:38:14.706Z,8.43
2023-05-15T17:40:42.665Z,7.87
2023-05-15T17:43:11.984Z,5.40
2023-05-15T17:45:39.758Z,11.07
2023-05-15T17:48:07.922Z,8.67
2023-05-15T17:50:38.116Z,2.03
2023-05-15T17:53:07.153Z,9.90
2023-05-15T17:55:34.901Z,6.60
2023-05-15T17:58:02.664Z,4.73
2023-05-15T18:00:31.804Z,4.83
2023-05-15T18:03:00.804Z,6.47
2023-05-15T18:05:29.020Z,9.13
2023-05-15T18:07:59.603Z,8.10
2023-05-15T18:10:27.417Z,9.63
2023-05-15T18:12:55.253Z,9.03
2023-05-15T18:15:23.025Z,6.90
2023-05-15T18:17:52.293Z,15.80
2023-05-15T18:20:20.140Z,10.37
2023-05-15T18:22:47.968Z,7.33
2023-05-15T18:25:16.039Z,14.13
2023-05-15T18:27:43.845Z,10.23
2023-05-15T18:30:12.276Z,9.00
2023-05-15T18:32:40.149Z,6.07
2023-05-15T18:35:10.721Z,7.87
2023-05-15T18:37:38.558Z,11.83
2023-05-15T18:40:07.581Z,11.07
2023-05-15T18:42:35.528Z,11.30
2023-05-15T18:45:03.425Z,12.20
2023-05-15T18:47:31.121Z,5.97
2023-05-15T18:49:58.868Z,8.13
2023-05-15T18:52:28.840Z,10.80
2023-05-15T18:54:57.809Z,9.37
2023-05-15T18:57:26.338Z,7.60
2023-05-15T18:59:54.657Z,5.40
2023-05-15T19:02:24.027Z,5.07
2023-05-15T19:04:53.161Z,7.83
2023-05-15T19:07:20.991Z,5.27
2023-05-15T19:09:50.050Z,9.17
2023-05-15T19:12:17.858Z,8.83
2023-05-15T19:14:45.744Z,8.73
2023-05-15T19:17:13.498Z,7.57
2023-05-15T19:19:41.324Z,8.63
2023-05-15T19:22:09.047Z,13.83
2023-05-15T19:24:36.757Z,8.83
2023-05-15T19:27:06.692Z,6.07
2023-05-15T19:29:35.409Z,10.00
2023-05-15T19:32:03.860Z,6.00
2023-05-15T19:34:31.704Z,10.87
2023-05-15T19:36:59.492Z,6.93
2023-05-15T19:39:27.195Z,7.57
2023-05-15T19:41:55.722Z,12.97
2023-05-15T19:44:25.103Z,5.00
2023-05-15T19:46:54.514Z,9.97
2023-05-15T19:49:22.396Z,9.00
2023-05-15T19:51:50.131Z,5.90
2023-05-15T19:54:17.954Z,7.67
2023-05-15T19:56:45.754Z,4.80
2023-05-15T19:59:13.514Z,6.73
2023-05-15T20:01:42.779Z,7.40
2023-05-15T20:04:13.523Z,5.67
2023-05-15T20:06:41.365Z,4.73
2023-05-15T20:09:09.466Z,6.73
2023-05-15T20:11:37.190Z,12.03
2023-05-15T20:14:05.006Z,9.30
2023-05-15T20:16:32.991Z,9.37
2023-05-15T20:19:02.312Z,6.83
2023-05-15T20:21:31.925Z,10.97
2023-05-15T20:23:59.760Z,12.23
2023-05-15T20:26:27.622Z,7.10
2023-05-15T20:28:55.561Z,6.33
2023-05-15T20:31:23.404Z,10.57
2023-05-15T20:33:51.204Z,10.83
2023-05-15T20:36:25.150Z,5.40
2023-05-15T20:38:53.226Z,7.97
2023-05-15T20:41:22.952Z,5.30
2023-05-15T20:43:51.417Z,7.67
2023-05-15T20:46:19.486Z,10.17
2023-05-15T20:48:47.296Z,9.63
2023-05-15T20:51:15.051Z,10.07
2023-05-15T20:53:44.259Z,7.13
2023-05-15T20:56:12.162Z,6.27
2023-05-15T20:58:39.908Z,7.70
2023-05-15T21:01:07.797Z,7.63
2023-05-15T21:03:35.712Z,8.00
2023-05-15T21:06:03.764Z,11.13
2023-05-15T21:08:31.499Z,5.57
2023-05-15T21:11:00.757Z,9.50
2023-05-15T21:13:28.561Z,9.77
2023-05-15T21:15:56.468Z,6.30
2023-05-15T21:18:24.337Z,8.37
2023-05-15T21:20:52.836Z,8.90
2023-05-15T21:23:21.785Z,10.20
2023-05-15T21:25:49.601Z,9.63
2023-05-15T21:28:19.050Z,6.50
2023-05-15T21:30:46.988Z,10.20
2023-05-15T21:33:14.699Z,7.97
2023-05-15T21:35:42.521Z,11.47
2023-05-15T21:38:10.276Z,9.37
2023-05-15T21:40:38.124Z,8.97
2023-05-15T21:43:06.002Z,6.93
2023-05-15T21:45:37.505Z,11.20
2023-05-15T21:48:05.523Z,5.80
2023-05-15T21:50:33.395Z,7.90
2023-05-15T21:53:01.165Z,9.90
2023-05-15T21:55:28.908Z,6.97
2023-05-15T21:57:56.631Z,13.80
2023-05-15T22:00:24.743Z,8.60
2023-05-15T22:02:54.158Z,10.77
2023-05-15T22:05:22.250Z,10.07
2023-05-15T22:07:50.058Z,5.23
2023-05-15T22:10:17.907Z,8.47
2023-05-15T22:12:46.861Z,3.50
2023-05-15T22:15:17.656Z,5.40
2023-05-15T22:17:45.482Z,6.70
2023-05-15T22:20:18.564Z,11.93
2023-05-15T22:22:46.240Z,6.97
2023-05-15T22:25:14.527Z,8.03
2023-05-15T22:27:42.651Z,9.63
2023-05-15T22:30:10.934Z,6.43
2023-05-15T22:32:38.800Z,9.10
2023-05-15T22:35:08.308Z,8.30
2023-05-15T22:37:37.565Z,5.33
2023-05-15T22:40:07.527Z,11.17
2023-05-15T22:42:35.337Z,8.97
2023-05-15T22:45:03.276Z,7.63
2023-05-15T22:47:31.187Z,6.40
2023-05-15T22:49:59.058Z,5.73
2023-05-15T22:52:27.012Z,9.43
2023-05-15T22:54:56.150Z,9.37
2023-05-15T22:57:24.148Z,5.37
2023-05-15T22:59:51.981Z,8.23
2023-05-15T23:02:19.819Z,5.53
2023-05-15T23:04:47.884Z,10.77
2023-05-15T23:07:17.233Z,7.10
2023-05-15T23:09:45.062Z,8.83
2023-05-15T23:12:14.227Z,8.17
2023-05-15T23:14:42.061Z,1.57
2023-05-15T23:17:09.800Z,5.47
2023-05-15T23:19:37.597Z,6.77
2023-05-15T23:22:05.741Z,7.00
2023-05-15T23:24:33.556Z,7.03
2023-05-15T23:27:01.366Z,7.83
2023-05-15T23:29:30.893Z,7.13
2023-05-15T23:31:58.764Z,4.57
2023-05-15T23:34:26.810Z,10.83
2023-05-15T23:36:54.547Z,5.57
2023-05-15T23:39:22.270Z,7.93
2023-05-15T23:41:50.063Z,5.97
2023-05-15T23:44:17.801Z,3.73
2023-05-15T23:46:47.084Z,12.27
2023-05-15T23:49:15.449Z,9.50
2023-05-15T23:51:43.681Z,4.40
2023-05-15T23:54:11.571Z,4.53
2023-05-15T23:56:39.422Z,6.97
2023-05-15T23:59:07.466Z,8.13
